createdAt,value
2023-03-14T00:00:29.350Z,2.70
2023-03-14T00:01:29.350Z,2.40
2023-03-14T00:02:29.355Z,2.20
2023-03-14T00:03:29.307Z,2.40
2023-03-14T00:04:29.305Z,2.40
2023-03-14T00:05:29.268Z,2.20
2023-03-14T00:06:29.301Z,2.30
2023-03-14T00:07:29.267Z,2.30
2023-03-14T00:08:29.273Z,2.30
2023-03-14T00:09:29.271Z,2.20
2023-03-14T00:10:29.259Z,2.30
2023-03-14T00:11:29.210Z,2.20
2023-03-14T00:12:29.200Z,2.10
2023-03-14T00:13:29.210Z,2.90
2023-03-14T00:14:29.219Z,2.40
2023-03-14T00:15:29.172Z,2.20
2023-03-14T00:16:29.193Z,2.10
2023-03-14T00:17:29.174Z,2.10
2023-03-14T00:18:29.427Z,2.00
2023-03-14T00:19:29.116Z,2.30
2023-03-14T00:20:29.136Z,1.80
2023-03-14T00:21:29.108Z,2.20
2023-03-14T00:22:29.118Z,2.00
2023-03-14T00:23:29.103Z,1.80
2023-03-14T00:24:29.104Z,1.90
2023-03-14T00:25:29.061Z,2.00
2023-03-14T00:26:29.051Z,2.10
2023-03-14T00:27:29.044Z,2.10
2023-03-14T00:28:29.029Z,2.40
2023-03-14T00:29:29.038Z,2.20
2023-03-14T00:30:29.010Z,2.10
2023-03-14T00:31:29.036Z,2.20
2023-03-14T00:32:29.067Z,2.00
2023-03-14T00:33:28.976Z,1.90
2023-03-14T00:34:28.979Z,2.30
2023-03-14T00:35:28.976Z,2.10
2023-03-14T00:36:28.955Z,2.00
2023-03-14T00:37:28.936Z,2.10
2023-03-14T00:38:28.935Z,1.80
2023-03-14T00:39:28.920Z,2.10
2023-03-14T00:40:28.908Z,2.00
2023-03-14T00:41:28.887Z,2.10
2023-03-14T00:42:28.905Z,2.20
2023-03-14T00:43:28.911Z,2.20
2023-03-14T00:44:28.897Z,2.40
2023-03-14T00:45:28.850Z,2.40
2023-03-14T00:46:28.952Z,2.20
2023-03-14T00:47:28.839Z,2.30
2023-03-14T00:48:28.843Z,2.10
2023-03-14T00:49:28.820Z,2.20
2023-03-14T00:50:28.840Z,2.00
2023-03-14T00:51:28.792Z,2.40
2023-03-14T00:52:28.801Z,2.30
2023-03-14T00:53:28.812Z,2.00
2023-03-14T00:54:28.773Z,2.80
2023-03-14T00:55:28.762Z,2.30
2023-03-14T00:56:28.776Z,2.10
2023-03-14T00:57:28.769Z,2.30
2023-03-14T00:58:28.733Z,2.70
2023-03-14T00:59:28.718Z,2.20
2023-03-14T01:00:28.801Z,2.10
2023-03-14T01:01:28.736Z,2.10
2023-03-14T01:02:28.750Z,2.60
2023-03-14T01:03:28.674Z,2.30
2023-03-14T01:04:28.667Z,2.10
2023-03-14T01:05:28.640Z,2.20
2023-03-14T01:06:28.637Z,2.30
2023-03-14T01:07:28.670Z,2.20
2023-03-14T01:08:28.637Z,2.20
2023-03-14T01:09:28.609Z,2.20
2023-03-14T01:10:28.613Z,2.40
2023-03-14T01:11:28.578Z,2.40
2023-03-14T01:12:28.594Z,2.40
2023-03-14T01:13:28.557Z,2.60
2023-03-14T01:14:28.575Z,2.30
2023-03-14T01:15:28.544Z,2.50
2023-03-14T01:16:28.590Z,2.30
2023-03-14T01:17:28.532Z,2.60
2023-03-14T01:18:28.548Z,2.20
2023-03-14T01:19:28.565Z,2.50
2023-03-14T01:20:28.505Z,2.40
2023-03-14T01:21:28.498Z,2.40
2023-03-14T01:22:28.466Z,2.10
2023-03-14T01:23:28.492Z,2.10
2023-03-14T01:24:28.464Z,2.20
2023-03-14T01:25:28.446Z,2.30
2023-03-14T01:26:28.435Z,2.30
2023-03-14T01:27:28.428Z,2.10
2023-03-14T01:28:28.392Z,2.40
2023-03-14T01:29:28.424Z,2.40
2023-03-14T01:30:28.421Z,2.50
2023-03-14T01:31:28.470Z,2.20
2023-03-14T01:32:28.388Z,2.10
2023-03-14T01:33:28.345Z,2.50
2023-03-14T01:34:28.362Z,2.80
2023-03-14T01:35:28.350Z,2.20
2023-03-14T01:36:30.406Z,2.30
2023-03-14T01:37:28.328Z,2.30
2023-03-14T01:38:28.307Z,2.50
2023-03-14T01:39:28.300Z,2.30
2023-03-14T01:40:28.280Z,2.50
2023-03-14T01:41:28.313Z,2.30
2023-03-14T01:42:28.303Z,2.40
2023-03-14T01:43:28.996Z,2.40
2023-03-14T01:44:28.260Z,2.20
2023-03-14T01:45:28.255Z,2.40
2023-03-14T01:46:28.218Z,2.30
2023-03-14T01:47:28.210Z,2.20
2023-03-14T01:48:28.213Z,2.10
2023-03-14T01:49:28.228Z,2.50
2023-03-14T01:50:28.214Z,2.20
2023-03-14T01:51:28.176Z,2.10
2023-03-14T01:52:28.196Z,1.90
2023-03-14T01:53:28.137Z,2.20
2023-03-14T01:54:28.137Z,2.20
2023-03-14T01:55:28.135Z,2.40
2023-03-14T01:56:28.100Z,1.90
2023-03-14T01:57:28.125Z,2.00
2023-03-14T01:58:28.179Z,2.70
2023-03-14T01:59:28.100Z,2.10
2023-03-14T02:00:28.074Z,2.00
2023-03-14T02:01:28.071Z,2.10
2023-03-14T02:02:28.106Z,1.80
2023-03-14T02:03:28.082Z,2.10
2023-03-14T02:04:28.032Z,2.10
2023-03-14T02:05:28.076Z,2.00
2023-03-14T02:06:28.003Z,1.90
2023-03-14T02:07:28.005Z,1.90
2023-03-14T02:08:27.982Z,2.00
2023-03-14T02:09:28.003Z,2.40
2023-03-14T02:10:27.962Z,2.30
2023-03-14T02:11:27.951Z,2.00
2023-03-14T02:12:27.968Z,2.10
2023-03-14T02:13:27.938Z,2.00
2023-03-14T02:14:27.937Z,2.10
2023-03-14T02:15:27.924Z,1.90
2023-03-14T02:16:27.926Z,2.00
2023-03-14T02:17:27.937Z,2.20
2023-03-14T02:18:27.917Z,2.20
2023-03-14T02:19:27.876Z,1.90
2023-03-14T02:20:27.840Z,1.90
2023-03-14T02:21:27.893Z,2.00
2023-03-14T02:22:27.858Z,2.10
2023-03-14T02:23:27.855Z,2.00
2023-03-14T02:24:27.806Z,2.00
2023-03-14T02:25:27.851Z,2.30
2023-03-14T02:26:27.790Z,2.00
2023-03-14T02:27:27.813Z,2.10
2023-03-14T02:28:27.758Z,2.20
2023-03-14T02:29:27.761Z,2.20
2023-03-14T02:30:27.766Z,2.30
2023-03-14T02:31:27.830Z,2.90
2023-03-14T02:32:27.777Z,2.50
2023-03-14T02:33:27.732Z,2.50
2023-03-14T02:34:27.712Z,2.40
2023-03-14T02:35:27.710Z,2.30
2023-03-14T02:36:27.678Z,2.50
2023-03-14T02:37:27.700Z,2.10
2023-03-14T02:38:27.717Z,2.40
2023-03-14T02:39:27.655Z,2.20
2023-03-14T02:40:27.638Z,2.20
2023-03-14T02:41:27.627Z,2.20
2023-03-14T02:42:27.643Z,2.20
2023-03-14T02:43:27.620Z,2.00
2023-03-14T02:44:27.625Z,2.20
2023-03-14T02:45:27.602Z,1.90
2023-03-14T02:46:27.590Z,2.30
2023-03-14T02:47:27.589Z,2.00
2023-03-14T02:48:27.604Z,2.10
2023-03-14T02:49:27.554Z,2.00
2023-03-14T02:50:27.524Z,2.10
2023-03-14T02:51:27.571Z,2.00
2023-03-14T02:52:27.525Z,2.30
2023-03-14T02:53:27.530Z,1.70
2023-03-14T02:54:27.503Z,1.90
2023-03-14T02:55:27.508Z,1.90
2023-03-14T02:56:27.471Z,2.10
2023-03-14T02:57:27.496Z,2.10
2023-03-14T02:58:27.468Z,2.10
2023-03-14T02:59:27.469Z,2.10
2023-03-14T03:00:27.442Z,2.00
2023-03-14T03:01:27.513Z,2.00
2023-03-14T03:02:27.413Z,2.40
2023-03-14T03:03:27.495Z,1.90
2023-03-14T03:04:27.394Z,2.00
2023-03-14T03:05:27.402Z,1.80
2023-03-14T03:06:27.378Z,2.10
2023-03-14T03:07:27.402Z,2.10
2023-03-14T03:08:27.366Z,2.00
2023-03-14T03:09:27.354Z,2.20
2023-03-14T03:10:27.337Z,2.10
2023-03-14T03:11:27.346Z,2.20
2023-03-14T03:12:27.319Z,2.60
2023-03-14T03:13:27.302Z,2.10
2023-03-14T03:14:27.284Z,2.30
2023-03-14T03:15:27.337Z,2.00
2023-03-14T03:16:27.278Z,2.30
2023-03-14T03:17:27.279Z,2.50
2023-03-14T03:18:27.241Z,2.30
2023-03-14T03:19:27.235Z,2.60
2023-03-14T03:20:27.226Z,2.10
2023-03-14T03:21:27.233Z,2.60
2023-03-14T03:22:27.202Z,2.10
2023-03-14T03:23:27.208Z,2.50
2023-03-14T03:24:27.179Z,2.80
2023-03-14T03:25:27.196Z,2.50
2023-03-14T03:26:27.165Z,2.40
2023-03-14T03:27:27.176Z,2.70
2023-03-14T03:28:27.152Z,2.60
2023-03-14T03:29:27.141Z,2.50
2023-03-14T03:30:27.120Z,2.60
2023-03-14T03:31:27.168Z,2.20
2023-03-14T03:32:27.181Z,2.70
2023-03-14T03:33:27.096Z,2.40
2023-03-14T03:34:27.082Z,2.40
2023-03-14T03:35:27.102Z,2.30
2023-03-14T03:36:27.073Z,2.50
2023-03-14T03:37:27.058Z,2.90
2023-03-14T03:38:27.038Z,2.50
2023-03-14T03:39:27.040Z,2.60
2023-03-14T03:40:27.059Z,2.70
2023-03-14T03:41:27.031Z,3.00
2023-03-14T03:42:27.036Z,2.50
2023-03-14T03:43:27.105Z,2.70
2023-03-14T03:44:26.979Z,2.40
2023-03-14T03:45:26.974Z,2.50
2023-03-14T03:46:27.003Z,2.40
2023-03-14T03:47:26.965Z,2.60
2023-03-14T03:48:26.939Z,3.10
2023-03-14T03:49:26.929Z,3.20
2023-03-14T03:50:26.948Z,2.90
2023-03-14T03:51:26.922Z,2.60
2023-03-14T03:52:27.074Z,3.20
2023-03-14T03:53:33.114Z,3.20
2023-03-14T03:54:26.871Z,3.30
2023-03-14T03:55:26.871Z,3.90
2023-03-14T03:56:26.883Z,3.60
2023-03-14T03:57:26.912Z,3.90
2023-03-14T03:58:26.827Z,4.00
2023-03-14T03:59:26.823Z,4.50
2023-03-14T04:00:26.840Z,4.40
2023-03-14T04:01:26.889Z,4.60
2023-03-14T04:02:26.846Z,3.90
2023-03-14T04:03:26.901Z,3.30
2023-03-14T04:04:26.814Z,3.50
2023-03-14T04:05:26.770Z,3.40
2023-03-14T04:06:26.813Z,2.80
2023-03-14T04:07:26.774Z,2.70
2023-03-14T04:08:26.738Z,2.60
2023-03-14T04:09:26.725Z,2.50
2023-03-14T04:10:26.749Z,2.50
2023-03-14T04:11:26.705Z,2.50
2023-03-14T04:12:26.702Z,2.30
2023-03-14T04:13:26.710Z,2.10
2023-03-14T04:14:26.680Z,2.50
2023-03-14T04:15:26.649Z,2.60
2023-03-14T04:16:26.670Z,2.30
2023-03-14T04:17:26.659Z,2.40
2023-03-14T04:18:26.632Z,3.20
2023-03-14T04:19:26.614Z,2.30
2023-03-14T04:20:26.610Z,2.30
2023-03-14T04:21:26.595Z,2.10
2023-03-14T04:22:26.586Z,2.40
2023-03-14T04:23:26.590Z,2.20
2023-03-14T04:24:26.575Z,2.30
2023-03-14T04:25:26.607Z,2.00
2023-03-14T04:26:26.605Z,2.20
2023-03-14T04:27:26.549Z,2.20
2023-03-14T04:28:26.529Z,2.20
2023-03-14T04:29:26.515Z,2.30
2023-03-14T04:30:26.510Z,2.40
2023-03-14T04:31:26.699Z,2.20
2023-03-14T04:32:26.532Z,2.10
2023-03-14T04:33:26.499Z,2.40
2023-03-14T04:34:26.454Z,2.30
2023-03-14T04:35:26.466Z,2.60
2023-03-14T04:36:26.428Z,2.10
2023-03-14T04:37:26.461Z,2.10
2023-03-14T04:38:26.425Z,2.30
2023-03-14T04:39:26.451Z,2.10
2023-03-14T04:40:26.487Z,2.10
2023-03-14T04:41:26.391Z,2.10
2023-03-14T04:42:26.369Z,2.00
2023-03-14T04:43:26.400Z,2.50
2023-03-14T04:44:26.356Z,2.10
2023-03-14T04:45:26.389Z,2.10
2023-03-14T04:46:26.415Z,2.30
2023-03-14T04:47:26.376Z,2.20
2023-03-14T04:48:26.305Z,2.00
2023-03-14T04:49:26.300Z,2.20
2023-03-14T04:50:26.292Z,2.00
2023-03-14T04:51:26.290Z,1.90
2023-03-14T04:52:26.296Z,1.90
2023-03-14T04:53:26.298Z,2.40
2023-03-14T04:54:26.250Z,1.70
2023-03-14T04:55:26.244Z,1.70
2023-03-14T04:56:26.285Z,2.00
2023-03-14T04:57:26.260Z,1.70
2023-03-14T04:58:26.209Z,1.70
2023-03-14T04:59:26.190Z,1.70
2023-03-14T05:00:26.218Z,2.00
2023-03-14T05:01:26.234Z,1.80
2023-03-14T05:02:26.192Z,2.20
2023-03-14T05:03:26.184Z,2.00
2023-03-14T05:04:26.157Z,1.80
2023-03-14T05:05:26.148Z,1.90
2023-03-14T05:06:26.155Z,1.70
2023-03-14T05:07:26.117Z,2.10
2023-03-14T05:08:26.090Z,1.70
2023-03-14T05:09:26.200Z,1.80
2023-03-14T05:10:26.067Z,1.70
2023-03-14T05:11:26.074Z,1.70
2023-03-14T05:12:26.061Z,1.70
2023-03-14T05:13:26.089Z,1.60
2023-03-14T05:14:26.049Z,1.40
2023-03-14T05:15:26.091Z,1.90
2023-03-14T05:16:26.043Z,1.50
2023-03-14T05:17:26.104Z,1.50
2023-03-14T05:18:26.026Z,1.50
2023-03-14T05:19:25.997Z,1.40
2023-03-14T05:20:26.085Z,1.50
2023-03-14T05:21:25.990Z,1.60
2023-03-14T05:22:25.928Z,2.00
2023-03-14T05:23:25.879Z,1.80
2023-03-14T05:24:25.963Z,2.00
2023-03-14T05:25:25.909Z,1.70
2023-03-14T05:26:25.887Z,1.80
2023-03-14T05:27:25.863Z,1.60
2023-03-14T05:28:25.833Z,1.60
2023-03-14T05:29:25.838Z,1.90
2023-03-14T05:30:25.806Z,1.80
2023-03-14T05:31:25.824Z,1.70
2023-03-14T05:32:25.891Z,1.80
2023-03-14T05:33:25.778Z,1.50
2023-03-14T05:34:25.781Z,1.80
2023-03-14T05:35:25.819Z,1.70
2023-03-14T05:36:25.764Z,1.80
2023-03-14T05:37:25.745Z,1.70
2023-03-14T05:38:25.785Z,1.70
2023-03-14T05:39:25.733Z,1.70
2023-03-14T05:40:25.754Z,1.80
2023-03-14T05:41:25.762Z,1.70
2023-03-14T05:42:25.747Z,2.10
2023-03-14T05:43:25.676Z,1.70
2023-03-14T05:44:25.659Z,1.90
2023-03-14T05:45:25.665Z,1.90
2023-03-14T05:46:25.732Z,1.70
2023-03-14T05:47:25.680Z,1.80
2023-03-14T05:48:25.636Z,1.80
2023-03-14T05:49:25.669Z,2.30
2023-03-14T05:50:25.626Z,2.50
2023-03-14T05:51:25.608Z,2.10
2023-03-14T05:52:25.605Z,1.90
2023-03-14T05:53:25.573Z,2.10
2023-03-14T05:54:25.615Z,2.00
2023-03-14T05:55:25.567Z,2.40
2023-03-14T05:56:25.536Z,2.20
2023-03-14T05:57:25.517Z,2.20
2023-03-14T05:58:25.630Z,2.60
2023-03-14T05:59:25.504Z,2.50
2023-03-14T06:00:25.534Z,2.30
2023-03-14T06:01:25.512Z,2.50
2023-03-14T06:02:25.535Z,2.60
2023-03-14T06:03:25.563Z,2.70
2023-03-14T06:04:25.496Z,3.20
2023-03-14T06:05:25.456Z,2.80
2023-03-14T06:06:25.449Z,3.50
2023-03-14T06:07:25.419Z,3.30
2023-03-14T06:08:25.464Z,3.80
2023-03-14T06:09:25.422Z,3.90
2023-03-14T06:10:25.426Z,4.10
2023-03-14T06:11:25.429Z,4.10
2023-03-14T06:12:25.375Z,4.30
2023-03-14T06:13:25.358Z,4.40
2023-03-14T06:14:25.403Z,4.60
2023-03-14T06:15:25.363Z,4.70
2023-03-14T06:16:25.349Z,3.80
2023-03-14T06:17:25.364Z,3.60
2023-03-14T06:18:25.400Z,3.50
2023-03-14T06:19:25.336Z,3.60
2023-03-14T06:20:25.306Z,3.80
2023-03-14T06:21:25.271Z,4.00
2023-03-14T06:22:25.293Z,3.80
2023-03-14T06:23:25.270Z,4.10
2023-03-14T06:24:25.261Z,4.00
2023-03-14T06:25:25.297Z,4.20
2023-03-14T06:26:25.215Z,4.40
2023-03-14T06:27:25.216Z,3.90
2023-03-14T06:28:26.221Z,4.70
2023-03-14T06:29:25.201Z,4.90
2023-03-14T06:30:25.200Z,5.60
2023-03-14T06:31:25.248Z,5.80
2023-03-14T06:32:25.218Z,6.80
2023-03-14T06:33:25.138Z,7.20
2023-03-14T06:34:25.198Z,7.50
2023-03-14T06:35:25.128Z,8.00
2023-03-14T06:36:25.151Z,8.80
2023-03-14T06:37:25.138Z,8.70
2023-03-14T06:38:25.112Z,9.30
2023-03-14T06:39:25.101Z,10.30
2023-03-14T06:40:25.095Z,10.90
2023-03-14T06:41:25.080Z,12.50
2023-03-14T06:42:25.126Z,12.20
2023-03-14T06:43:25.052Z,12.60
2023-03-14T06:44:25.042Z,13.20
2023-03-14T06:45:25.033Z,12.30
2023-03-14T06:46:25.138Z,12.60
2023-03-14T06:47:25.027Z,13.40
2023-03-14T06:48:25.040Z,14.10
2023-03-14T06:49:24.983Z,14.10
2023-03-14T06:50:26.589Z,14.70
2023-03-14T06:51:25.400Z,14.90
2023-03-14T06:52:25.072Z,15.70
2023-03-14T06:53:24.936Z,16.60
2023-03-14T06:54:24.993Z,15.60
2023-03-14T06:55:24.933Z,15.80
2023-03-14T06:56:24.955Z,15.70
2023-03-14T06:57:24.999Z,16.60
2023-03-14T06:58:24.896Z,14.20
2023-03-14T06:59:24.892Z,14.20
2023-03-14T07:00:24.880Z,14.10
2023-03-14T07:01:24.906Z,14.70
2023-03-14T07:02:36.022Z,14.10
2023-03-14T07:03:24.883Z,13.90
2023-03-14T07:04:24.883Z,13.40
2023-03-14T07:05:24.825Z,14.30
2023-03-14T07:06:24.835Z,13.30
2023-03-14T07:07:24.818Z,13.50
2023-03-14T07:08:24.892Z,14.70
2023-03-14T07:09:24.775Z,11.80
2023-03-14T07:10:24.832Z,11.90
2023-03-14T07:11:24.738Z,11.90
2023-03-14T07:12:24.757Z,12.60
2023-03-14T07:13:24.754Z,12.20
2023-03-14T07:14:24.767Z,11.90
2023-03-14T07:15:24.823Z,11.10
2023-03-14T07:16:24.820Z,11.50
2023-03-14T07:17:24.719Z,11.00
2023-03-14T07:18:24.728Z,10.40
2023-03-14T07:19:24.687Z,10.70
2023-03-14T07:20:24.674Z,10.60
2023-03-14T07:21:24.683Z,10.20
2023-03-14T07:22:24.634Z,9.70
2023-03-14T07:23:24.692Z,9.60
2023-03-14T07:24:24.668Z,9.80
2023-03-14T07:25:24.615Z,9.70
2023-03-14T07:26:24.634Z,9.40
2023-03-14T07:27:24.630Z,9.10
2023-03-14T07:28:24.610Z,8.80
2023-03-14T07:29:24.604Z,8.90
2023-03-14T07:30:24.579Z,8.60
2023-03-14T07:31:24.578Z,8.50
2023-03-14T07:32:24.576Z,8.00
2023-03-14T07:33:24.589Z,7.80
2023-03-14T07:34:24.549Z,7.10
2023-03-14T07:35:24.520Z,6.80
2023-03-14T07:36:24.497Z,6.80
2023-03-14T07:37:24.496Z,7.00
2023-03-14T07:38:24.475Z,6.20
2023-03-14T07:39:24.463Z,6.20
2023-03-14T07:40:24.505Z,6.50
2023-03-14T07:41:24.426Z,6.50
2023-03-14T07:42:24.456Z,6.40
2023-03-14T07:43:24.432Z,6.30
2023-03-14T07:44:24.419Z,6.90
2023-03-14T07:45:25.114Z,6.80
2023-03-14T07:46:24.529Z,6.10
2023-03-14T07:47:24.401Z,5.70
2023-03-14T07:48:24.370Z,6.20
2023-03-14T07:49:24.367Z,6.50
2023-03-14T07:50:24.395Z,6.90
2023-03-14T07:51:24.351Z,5.50
2023-03-14T07:52:24.341Z,6.20
2023-03-14T07:53:24.420Z,5.80
2023-03-14T07:54:24.345Z,5.70
2023-03-14T07:55:24.317Z,6.00
2023-03-14T07:56:24.344Z,5.70
2023-03-14T07:57:24.269Z,5.70
2023-03-14T07:58:24.299Z,5.70
2023-03-14T07:59:24.269Z,6.40
2023-03-14T08:00:24.273Z,5.40
2023-03-14T08:01:24.254Z,4.90
2023-03-14T08:02:24.294Z,5.40
2023-03-14T08:03:24.224Z,5.00
2023-03-14T08:04:24.239Z,5.10
2023-03-14T08:05:24.222Z,5.50
2023-03-14T08:06:24.196Z,5.30
2023-03-14T08:07:24.158Z,5.70
2023-03-14T08:08:24.167Z,5.50
2023-03-14T08:09:24.182Z,6.10
2023-03-14T08:10:24.160Z,5.80
2023-03-14T08:11:24.135Z,6.60
2023-03-14T08:12:24.135Z,5.70
2023-03-14T08:13:24.119Z,5.60
2023-03-14T08:14:24.112Z,5.70
2023-03-14T08:15:24.090Z,5.50
2023-03-14T08:16:24.246Z,5.80
2023-03-14T08:17:24.068Z,5.70
2023-03-14T08:18:24.088Z,5.50
2023-03-14T08:19:24.051Z,5.60
2023-03-14T08:20:24.097Z,5.30
2023-03-14T08:21:24.032Z,5.50
2023-03-14T08:22:24.023Z,5.40
2023-03-14T08:23:24.090Z,5.20
2023-03-14T08:24:24.000Z,5.30
2023-03-14T08:25:24.042Z,5.20
2023-03-14T08:26:24.006Z,4.90
2023-03-14T08:27:23.952Z,5.00
2023-03-14T08:28:23.969Z,4.40
2023-03-14T08:29:23.952Z,4.30
2023-03-14T08:30:24.074Z,4.30
2023-03-14T08:31:24.137Z,4.10
2023-03-14T08:32:23.978Z,4.60
2023-03-14T08:33:23.916Z,4.40
2023-03-14T08:34:23.923Z,4.60
2023-03-14T08:35:23.913Z,4.60
2023-03-14T08:36:24.378Z,5.30
2023-03-14T08:37:26.920Z,4.60
2023-03-14T08:38:23.869Z,4.80
2023-03-14T08:39:23.902Z,5.50
2023-03-14T08:40:23.828Z,4.50
2023-03-14T08:41:23.816Z,5.00
2023-03-14T08:42:23.820Z,4.90
2023-03-14T08:43:23.800Z,4.90
2023-03-14T08:44:23.836Z,4.50
2023-03-14T08:45:24.458Z,4.70
2023-03-14T08:46:23.879Z,4.30
2023-03-14T08:47:23.796Z,4.70
2023-03-14T08:48:23.746Z,4.20
2023-03-14T08:49:23.778Z,3.90
2023-03-14T08:50:23.772Z,3.90
2023-03-14T08:51:23.705Z,3.70
2023-03-14T08:52:23.736Z,3.10
2023-03-14T08:53:23.683Z,3.40
2023-03-14T08:54:23.687Z,3.20
2023-03-14T08:55:23.668Z,2.90
2023-03-14T08:56:25.949Z,3.10
2023-03-14T08:57:23.642Z,2.70
2023-03-14T08:58:23.656Z,2.50
2023-03-14T08:59:23.633Z,2.40
2023-03-14T09:00:23.782Z,1.80
2023-03-14T09:01:23.606Z,2.00
2023-03-14T09:02:23.604Z,1.80
2023-03-14T09:03:23.605Z,1.90
2023-03-14T09:04:23.637Z,1.80
2023-03-14T09:05:23.554Z,1.90
2023-03-14T09:06:23.565Z,1.70
2023-03-14T09:07:23.629Z,1.80
2023-03-14T09:08:23.536Z,1.70
2023-03-14T09:09:23.529Z,1.40
2023-03-14T09:10:23.660Z,1.80
2023-03-14T09:11:23.520Z,1.70
2023-03-14T09:12:23.521Z,1.70
2023-03-14T09:13:23.493Z,1.70
2023-03-14T09:14:23.457Z,1.60
2023-03-14T09:15:23.457Z,1.90
2023-03-14T09:16:23.548Z,1.60
2023-03-14T09:17:23.453Z,1.60
2023-03-14T09:18:23.475Z,1.80
2023-03-14T09:19:23.401Z,1.80
2023-03-14T09:20:23.411Z,2.00
2023-03-14T09:21:23.438Z,2.60
2023-03-14T09:22:23.398Z,3.30
2023-03-14T09:23:23.383Z,3.00
2023-03-14T09:24:23.432Z,1.70
2023-03-14T09:25:23.371Z,1.50
2023-03-14T09:26:23.518Z,1.10
2023-03-14T09:27:23.350Z,1.30
2023-03-14T09:28:23.340Z,1.40
2023-03-14T09:29:23.369Z,1.60
2023-03-14T09:30:23.322Z,1.70
2023-03-14T09:31:23.364Z,1.90
2023-03-14T09:32:23.423Z,1.60
2023-03-14T09:33:23.327Z,1.70
2023-03-14T09:34:23.277Z,1.70
2023-03-14T09:35:23.305Z,1.20
2023-03-14T09:36:23.266Z,1.80
2023-03-14T09:37:23.232Z,1.30
2023-03-14T09:38:23.254Z,1.50
2023-03-14T09:39:23.212Z,1.20
2023-03-14T09:40:23.339Z,1.20
2023-03-14T09:41:23.206Z,1.10
2023-03-14T09:42:23.359Z,0.90
2023-03-14T09:43:23.183Z,1.10
2023-03-14T09:44:23.221Z,0.90
2023-03-14T09:45:23.768Z,0.90
2023-03-14T09:46:23.273Z,0.80
2023-03-14T09:47:23.190Z,0.70
2023-03-14T09:48:23.171Z,0.70
2023-03-14T09:49:23.104Z,0.60
2023-03-14T09:50:23.094Z,0.60
2023-03-14T09:51:23.074Z,0.70
2023-03-14T09:52:23.143Z,0.70
2023-03-14T09:53:23.129Z,0.60
2023-03-14T09:54:23.092Z,0.60
2023-03-14T09:55:23.038Z,0.80
2023-03-14T09:56:23.012Z,0.60
2023-03-14T09:57:23.019Z,0.70
2023-03-14T09:58:23.003Z,0.40
2023-03-14T09:59:23.032Z,0.50
2023-03-14T10:00:22.999Z,0.50
2023-03-14T10:01:23.134Z,0.50
2023-03-14T10:02:22.950Z,0.30
2023-03-14T10:03:22.961Z,0.40
2023-03-14T10:04:22.997Z,0.50
2023-03-14T10:05:22.937Z,0.50
2023-03-14T10:06:22.909Z,0.40
2023-03-14T10:07:22.938Z,0.50
2023-03-14T10:08:22.941Z,0.40
2023-03-14T10:09:22.897Z,0.50
2023-03-14T10:10:22.854Z,0.50
2023-03-14T10:11:22.877Z,0.70
2023-03-14T10:12:22.897Z,0.60
2023-03-14T10:13:22.867Z,0.50
2023-03-14T10:14:22.848Z,0.70
2023-03-14T10:15:22.849Z,0.80
2023-03-14T10:16:22.844Z,0.70
2023-03-14T10:17:22.832Z,0.70
2023-03-14T10:18:22.798Z,1.00
2023-03-14T10:19:22.773Z,1.00
2023-03-14T10:20:22.862Z,1.10
2023-03-14T10:21:22.780Z,0.80
2023-03-14T10:22:22.778Z,1.00
2023-03-14T10:23:22.762Z,0.90
2023-03-14T10:24:22.750Z,1.00
2023-03-14T10:25:22.733Z,1.10
2023-03-14T10:26:22.767Z,0.90
2023-03-14T10:27:22.729Z,0.90
2023-03-14T10:28:22.732Z,1.10
2023-03-14T10:29:22.709Z,0.90
2023-03-14T10:30:22.694Z,0.90
2023-03-14T10:31:22.689Z,1.00
2023-03-14T10:32:22.723Z,1.00
2023-03-14T10:33:23.517Z,0.80
2023-03-14T10:34:22.641Z,0.90
2023-03-14T10:35:22.634Z,0.90
2023-03-14T10:36:22.697Z,0.80
2023-03-14T10:37:22.620Z,0.70
2023-03-14T10:38:22.600Z,0.80
2023-03-14T10:39:22.611Z,0.70
2023-03-14T10:40:22.560Z,0.60
2023-03-14T10:41:22.574Z,0.70
2023-03-14T10:42:22.599Z,0.70
2023-03-14T10:43:22.693Z,0.60
2023-03-14T10:44:22.539Z,0.50
2023-03-14T10:45:22.519Z,0.60
2023-03-14T10:46:22.517Z,0.60
2023-03-14T10:47:22.511Z,0.60
2023-03-14T10:48:22.511Z,0.60
2023-03-14T10:49:22.529Z,0.60
2023-03-14T10:50:22.460Z,0.60
2023-03-14T10:51:22.459Z,0.60
2023-03-14T10:52:26.366Z,0.60
2023-03-14T10:53:22.573Z,0.60
2023-03-14T10:54:22.432Z,0.70
2023-03-14T10:55:22.403Z,0.70
2023-03-14T10:56:22.412Z,0.60
2023-03-14T10:57:22.408Z,0.70
2023-03-14T10:58:22.373Z,0.70
2023-03-14T10:59:22.398Z,0.50
2023-03-14T11:00:22.362Z,0.60
2023-03-14T11:01:22.433Z,0.60
2023-03-14T11:02:22.346Z,0.70
2023-03-14T11:03:22.356Z,0.60
2023-03-14T11:04:22.385Z,0.60
2023-03-14T11:05:22.345Z,0.40
2023-03-14T11:06:22.311Z,0.70
2023-03-14T11:07:22.282Z,0.50
2023-03-14T11:08:22.310Z,0.40
2023-03-14T11:09:22.282Z,0.60
2023-03-14T11:10:22.304Z,0.50
2023-03-14T11:11:22.250Z,0.40
2023-03-14T11:12:22.243Z,0.50
2023-03-14T11:13:22.247Z,0.50
2023-03-14T11:14:22.185Z,0.60
2023-03-14T11:15:22.209Z,0.50
2023-03-14T11:16:22.206Z,0.50
2023-03-14T11:17:22.193Z,0.50
2023-03-14T11:18:22.348Z,0.60
2023-03-14T11:19:22.197Z,0.70
2023-03-14T11:20:22.118Z,0.50
2023-03-14T11:21:22.146Z,0.60
2023-03-14T11:22:22.107Z,0.60
2023-03-14T11:23:22.126Z,0.70
2023-03-14T11:24:22.094Z,0.50
2023-03-14T11:25:22.079Z,0.50
2023-03-14T11:26:22.080Z,0.70
2023-03-14T11:27:22.059Z,0.70
2023-03-14T11:28:22.098Z,0.70
2023-03-14T11:29:22.080Z,0.70
2023-03-14T11:30:22.034Z,0.80
2023-03-14T11:31:22.145Z,0.60
2023-03-14T11:32:22.026Z,0.70
2023-03-14T11:33:22.010Z,0.70
2023-03-14T11:34:22.076Z,0.70
2023-03-14T11:35:21.998Z,0.60
2023-03-14T11:36:21.999Z,0.90
2023-03-14T11:37:21.964Z,0.70
2023-03-14T11:38:21.958Z,0.70
2023-03-14T11:39:21.916Z,0.70
2023-03-14T11:40:21.936Z,0.80
2023-03-14T11:41:21.967Z,0.70
2023-03-14T11:42:22.012Z,0.60
2023-03-14T11:43:21.891Z,0.70
2023-03-14T11:44:21.886Z,0.80
2023-03-14T11:45:21.887Z,0.80
2023-03-14T11:46:22.021Z,0.90
2023-03-14T11:47:21.862Z,0.80
2023-03-14T11:48:21.852Z,1.10
2023-03-14T11:49:21.825Z,0.90
2023-03-14T11:50:21.827Z,0.90
2023-03-14T11:51:21.849Z,1.20
2023-03-14T11:52:22.502Z,1.00
2023-03-14T11:53:21.796Z,1.10
2023-03-14T11:54:21.780Z,1.20
2023-03-14T11:55:21.753Z,1.30
2023-03-14T11:56:21.793Z,0.90
2023-03-14T11:57:21.740Z,1.10
2023-03-14T11:58:22.231Z,1.20
2023-03-14T11:59:21.739Z,1.20
2023-03-14T12:00:21.724Z,1.10
2023-03-14T12:01:21.712Z,1.00
2023-03-14T12:02:21.747Z,1.10
2023-03-14T12:03:21.670Z,1.20
2023-03-14T12:04:21.694Z,1.10
2023-03-14T12:05:21.663Z,1.10
2023-03-14T12:06:21.630Z,0.80
2023-03-14T12:07:21.622Z,1.10
2023-03-14T12:08:21.635Z,1.30
2023-03-14T12:09:21.655Z,1.10
2023-03-14T12:10:21.582Z,1.10
2023-03-14T12:11:21.597Z,1.10
2023-03-14T12:12:21.559Z,1.10
2023-03-14T12:13:21.580Z,1.10
2023-03-14T12:14:21.546Z,1.10
2023-03-14T12:15:21.545Z,1.20
2023-03-14T12:16:21.848Z,1.40
2023-03-14T12:17:21.536Z,1.20
2023-03-14T12:18:21.506Z,1.30
2023-03-14T12:19:21.673Z,1.40
2023-03-14T12:20:21.486Z,1.40
2023-03-14T12:21:21.599Z,1.20
2023-03-14T12:22:21.578Z,1.50
2023-03-14T12:23:21.492Z,1.50
2023-03-14T12:24:21.428Z,1.70
2023-03-14T12:25:21.438Z,2.10
2023-03-14T12:26:21.429Z,1.50
2023-03-14T12:27:21.428Z,2.00
2023-03-14T12:28:21.484Z,1.60
2023-03-14T12:29:21.391Z,1.80
2023-03-14T12:30:21.402Z,1.70
2023-03-14T12:31:21.404Z,1.50
2023-03-14T12:32:21.438Z,1.80
2023-03-14T12:33:21.363Z,1.70
2023-03-14T12:34:21.328Z,1.60
2023-03-14T12:35:22.436Z,1.60
2023-03-14T12:36:21.335Z,1.80
2023-03-14T12:37:21.362Z,2.20
2023-03-14T12:38:21.304Z,1.90
2023-03-14T12:39:21.328Z,1.80
2023-03-14T12:40:21.270Z,2.50
2023-03-14T12:41:21.309Z,1.80
2023-03-14T12:42:21.873Z,2.40
2023-03-14T12:43:21.283Z,2.20
2023-03-14T12:44:21.215Z,2.30
2023-03-14T12:45:21.246Z,2.20
2023-03-14T12:46:21.231Z,2.40
2023-03-14T12:47:21.225Z,2.30
2023-03-14T12:48:21.197Z,2.40
2023-03-14T12:49:21.240Z,2.30
2023-03-14T12:50:21.180Z,2.30
2023-03-14T12:51:21.165Z,2.50
2023-03-14T12:52:21.162Z,2.70
2023-03-14T12:53:21.132Z,2.80
2023-03-14T12:54:21.148Z,3.00
2023-03-14T12:55:21.129Z,2.40
2023-03-14T12:56:21.098Z,2.70
2023-03-14T12:57:21.165Z,2.90
2023-03-14T12:58:21.627Z,2.90
2023-03-14T12:59:21.127Z,2.70
2023-03-14T13:00:21.058Z,2.70
2023-03-14T13:01:21.110Z,2.90
2023-03-14T13:02:21.078Z,2.80
2023-03-14T13:03:21.027Z,2.90
2023-03-14T13:04:29.186Z,2.60
2023-03-14T13:05:21.016Z,3.20
2023-03-14T13:06:20.985Z,3.00
2023-03-14T13:07:21.103Z,2.90
2023-03-14T13:08:20.994Z,2.80
2023-03-14T13:09:20.986Z,2.70
2023-03-14T13:10:20.973Z,3.10
2023-03-14T13:11:20.974Z,2.70
2023-03-14T13:12:20.966Z,2.90
2023-03-14T13:13:20.938Z,2.70
2023-03-14T13:14:20.909Z,2.90
2023-03-14T13:15:20.929Z,3.00
2023-03-14T13:16:20.978Z,2.90
2023-03-14T13:17:37.965Z,3.10